createdAt,value
2019-03-21T00:01:55.202Z,9.40
2019-03-21T00:03:59.844Z,9.40
2019-03-21T00:06:02.096Z,9.40
2019-03-21T00:08:04.733Z,9.40
2019-03-21T00:10:29.517Z,9.40
2019-03-21T00:12:30.765Z,9.40
2019-03-21T00:14:50.655Z,9.40
2019-03-21T00:16:51.801Z,9.40
2019-03-21T00:18:53.505Z,9.40
2019-03-21T00:20:55.099Z,9.40
2019-03-21T00:22:56.349Z,9.40
2019-03-21T00:24:57.583Z,9.40
2019-03-21T00:26:59.125Z,9.40
2019-03-21T00:29:00.269Z,9.40
2019-03-21T00:31:01.420Z,9.40
2019-03-21T00:33:02.840Z,9.40
2019-03-21T00:35:07.272Z,9.40
2019-03-21T00:37:08.413Z,9.50
2019-03-21T00:39:09.553Z,9.40
2019-03-21T00:41:10.704Z,9.40
2019-03-21T00:43:12.321Z,9.50
2019-03-21T00:45:14.549Z,9.40
2019-03-21T00:47:15.828Z,9.50
2019-03-21T00:49:17.006Z,9.50
2019-03-21T00:51:18.157Z,9.40
2019-03-21T00:53:19.300Z,9.50
2019-03-21T00:55:21.106Z,9.50
2019-03-21T00:57:22.255Z,9.50
2019-03-21T00:59:23.594Z,9.40
2019-03-21T01:01:24.841Z,9.50
2019-03-21T01:03:25.999Z,9.50
2019-03-21T01:05:27.146Z,9.50
2019-03-21T01:07:28.362Z,9.50
2019-03-21T01:09:29.550Z,9.50
2019-03-21T01:11:30.711Z,9.50
2019-03-21T01:13:34.786Z,9.50
2019-03-21T01:15:35.996Z,9.50
2019-03-21T01:17:37.195Z,9.50
2019-03-21T01:19:38.502Z,9.50
2019-03-21T01:21:39.652Z,9.50
2019-03-21T01:23:40.790Z,9.50
2019-03-21T01:25:45.813Z,9.50
2019-03-21T01:27:46.958Z,9.50
2019-03-21T01:29:48.105Z,9.50
2019-03-21T01:31:49.326Z,9.50
2019-03-21T01:33:50.487Z,9.50
2019-03-21T01:35:51.646Z,9.50
2019-03-21T01:37:53.150Z,9.50
2019-03-21T01:39:54.290Z,9.50
2019-03-21T01:41:55.449Z,9.50
2019-03-21T01:43:56.584Z,9.50
2019-03-21T01:45:57.848Z,9.50
2019-03-21T01:47:59.109Z,9.50
2019-03-21T01:50:00.401Z,9.50
2019-03-21T01:52:01.710Z,9.50
2019-03-21T01:54:03.059Z,9.50
2019-03-21T01:56:04.358Z,9.50
2019-03-21T01:58:08.412Z,9.50
2019-03-21T02:00:21.955Z,9.50
2019-03-21T02:02:23.115Z,9.50
2019-03-21T02:04:24.257Z,9.50
2019-03-21T02:06:25.413Z,9.50
2019-03-21T02:08:26.562Z,9.50
2019-03-21T02:10:27.770Z,9.50
2019-03-21T02:12:28.939Z,9.50
2019-03-21T02:14:30.148Z,9.50
2019-03-21T02:16:31.381Z,9.50
2019-03-21T02:18:32.512Z,9.50
2019-03-21T02:20:33.761Z,9.50
2019-03-21T02:22:35.809Z,9.50
2019-03-21T02:24:36.951Z,9.60
2019-03-21T02:26:38.205Z,9.50
2019-03-21T02:28:39.373Z,9.50
2019-03-21T02:30:46.949Z,9.50
2019-03-21T02:32:50.903Z,9.50
2019-03-21T02:34:52.050Z,9.50
2019-03-21T02:36:53.197Z,9.50
2019-03-21T02:38:54.708Z,9.50
2019-03-21T02:41:00.097Z,9.50
2019-03-21T02:43:01.272Z,9.50
2019-03-21T02:45:09.028Z,9.50
2019-03-21T02:47:07.362Z,9.50
2019-03-21T02:49:08.769Z,9.50
2019-03-21T02:51:09.963Z,9.50
2019-03-21T02:53:11.148Z,9.50
2019-03-21T02:55:12.370Z,9.50
2019-03-21T02:57:13.551Z,9.50
2019-03-21T02:59:14.750Z,9.50
2019-03-21T03:01:16.147Z,9.50
2019-03-21T03:03:17.283Z,9.50
2019-03-21T03:05:20.936Z,9.50
2019-03-21T03:07:22.190Z,9.50
2019-03-21T03:09:23.658Z,9.50
2019-03-21T03:11:24.827Z,9.50
2019-03-21T03:13:26.235Z,9.40
2019-03-21T03:15:30.084Z,9.40
2019-03-21T03:17:31.225Z,9.40
2019-03-21T03:19:32.405Z,9.50
2019-03-21T03:21:33.548Z,9.40
2019-03-21T03:23:35.004Z,9.50
2019-03-21T03:25:36.157Z,9.40
2019-03-21T03:27:37.313Z,9.40
2019-03-21T03:29:38.555Z,9.50
2019-03-21T03:31:39.771Z,9.40
2019-03-21T03:33:40.978Z,9.40
2019-03-21T03:35:42.575Z,9.40
2019-03-21T03:37:43.989Z,9.50
2019-03-21T03:39:45.550Z,9.50
2019-03-21T03:41:46.944Z,9.50
2019-03-21T03:43:48.084Z,9.50
2019-03-21T03:45:49.217Z,9.50
2019-03-21T03:47:50.729Z,9.40
2019-03-21T03:49:52.174Z,9.40
2019-03-21T03:51:53.724Z,9.40
2019-03-21T03:53:55.153Z,9.50
2019-03-21T03:55:56.326Z,9.60
2019-03-21T03:58:18.387Z,9.60
2019-03-21T04:00:20.780Z,9.50
2019-03-21T04:02:21.995Z,9.50
2019-03-21T04:04:23.148Z,9.40
2019-03-21T04:06:24.378Z,9.50
2019-03-21T04:08:25.537Z,9.40
2019-03-21T04:10:29.887Z,9.40
2019-03-21T04:12:31.142Z,9.40
2019-03-21T04:14:32.334Z,9.40
2019-03-21T04:16:33.558Z,9.30
2019-03-21T04:18:34.742Z,9.30
2019-03-21T04:20:45.279Z,9.30
2019-03-21T04:22:46.450Z,9.30
2019-03-21T04:24:47.699Z,9.30
2019-03-21T04:26:48.929Z,9.30
2019-03-21T04:28:50.087Z,9.30
2019-03-21T04:30:51.227Z,9.30
2019-03-21T04:32:52.378Z,9.30
2019-03-21T04:34:53.531Z,9.20
2019-03-21T04:36:54.662Z,9.30
2019-03-21T04:38:55.826Z,9.40
2019-03-21T04:40:56.969Z,9.30
2019-03-21T04:42:58.721Z,9.30
2019-03-21T04:44:59.742Z,9.30
2019-03-21T04:47:00.880Z,9.30
2019-03-21T04:49:02.038Z,9.30
2019-03-21T04:51:03.283Z,9.30
2019-03-21T04:53:04.515Z,9.30
2019-03-21T04:55:09.246Z,9.30
2019-03-21T04:57:10.428Z,9.30
2019-03-21T04:59:11.611Z,9.40
2019-03-21T05:01:12.762Z,9.40
2019-03-21T05:03:15.815Z,9.40
2019-03-21T05:05:17.026Z,9.40
2019-03-21T05:07:18.182Z,9.40
2019-03-21T05:09:19.322Z,9.40
2019-03-21T05:11:20.545Z,9.30
2019-03-21T05:13:21.706Z,9.30
2019-03-21T05:15:28.688Z,9.30
2019-03-21T05:17:29.847Z,9.30
2019-03-21T05:19:31.032Z,9.30
2019-03-21T05:21:32.231Z,9.30
2019-03-21T05:23:33.391Z,9.30
2019-03-21T05:25:34.614Z,9.30
2019-03-21T05:27:35.808Z,9.30
2019-03-21T05:29:37.062Z,9.30
2019-03-21T05:31:38.206Z,9.30
2019-03-21T05:33:39.355Z,9.30
2019-03-21T05:35:40.507Z,9.30
2019-03-21T05:37:41.666Z,9.20
2019-03-21T05:39:42.811Z,9.20
2019-03-21T05:41:43.959Z,9.20
2019-03-21T05:43:54.283Z,9.30
2019-03-21T05:45:55.433Z,9.20
2019-03-21T05:47:56.587Z,9.20
2019-03-21T05:49:57.769Z,9.20
2019-03-21T05:51:59.264Z,9.30
2019-03-21T05:54:00.465Z,9.30
2019-03-21T05:56:01.609Z,9.30
2019-03-21T05:58:03.007Z,9.30
2019-03-21T06:00:14.222Z,9.20
2019-03-21T06:02:15.445Z,9.20
2019-03-21T06:04:16.766Z,9.20
2019-03-21T06:06:44.538Z,9.20
2019-03-21T06:08:45.682Z,9.20
2019-03-21T06:10:47.742Z,9.20
2019-03-21T06:12:49.217Z,9.20
2019-03-21T06:14:57.018Z,9.20
2019-03-21T06:16:58.149Z,9.20
2019-03-21T06:19:09.105Z,9.20
2019-03-21T06:21:23.139Z,9.20
2019-03-21T06:23:28.400Z,9.20
2019-03-21T06:25:36.446Z,9.20
2019-03-21T06:27:37.580Z,9.20
2019-03-21T06:29:38.734Z,9.20
2019-03-21T06:31:39.905Z,9.30
2019-03-21T06:33:41.133Z,9.20
2019-03-21T06:35:42.334Z,9.20
2019-03-21T06:37:43.754Z,9.20
2019-03-21T06:39:44.905Z,9.20
2019-03-21T06:41:46.140Z,9.30
2019-03-21T06:43:47.285Z,9.30
2019-03-21T06:45:48.427Z,9.20
2019-03-21T06:47:49.568Z,9.30
2019-03-21T06:49:50.722Z,9.30
2019-03-21T06:51:51.877Z,9.30
2019-03-21T06:53:53.118Z,9.30
2019-03-21T06:55:54.727Z,9.30
2019-03-21T06:57:56.274Z,9.40
2019-03-21T06:59:57.421Z,9.30
2019-03-21T07:01:58.572Z,9.30
2019-03-21T07:04:06.935Z,9.40
2019-03-21T07:06:02.761Z,9.40
2019-03-21T07:08:04.231Z,9.30
2019-03-21T07:10:07.877Z,9.30
2019-03-21T07:12:09.017Z,9.40
2019-03-21T07:14:10.198Z,9.40
2019-03-21T07:16:11.343Z,9.40
2019-03-21T07:18:12.481Z,9.40
2019-03-21T07:20:13.625Z,9.40
2019-03-21T07:22:14.986Z,9.40
2019-03-21T07:24:16.233Z,9.50
2019-03-21T07:26:17.374Z,9.50
2019-03-21T07:28:18.573Z,9.40
2019-03-21T07:30:19.737Z,9.40
2019-03-21T07:32:20.873Z,9.50
2019-03-21T07:34:22.269Z,9.50
2019-03-21T07:36:26.126Z,9.50
2019-03-21T07:38:26.841Z,9.50
2019-03-21T07:40:27.994Z,9.60
2019-03-21T07:42:29.390Z,9.60
2019-03-21T07:44:30.541Z,9.60
2019-03-21T07:46:32.145Z,9.60
2019-03-21T07:48:33.539Z,9.70
2019-03-21T07:50:34.953Z,9.70
2019-03-21T07:52:36.096Z,9.70
2019-03-21T07:54:37.237Z,9.80
2019-03-21T07:56:38.413Z,9.80
2019-03-21T07:58:39.554Z,9.70
2019-03-21T08:00:41.039Z,9.70
2019-03-21T08:02:42.175Z,9.80
2019-03-21T08:04:43.326Z,9.80
2019-03-21T08:06:44.477Z,9.80
2019-03-21T08:08:45.728Z,9.80
2019-03-21T08:10:46.895Z,9.90
2019-03-21T08:12:48.108Z,9.90
2019-03-21T08:14:49.305Z,10.00
2019-03-21T08:16:50.689Z,10.10
2019-03-21T08:18:51.821Z,10.10
2019-03-21T08:20:58.364Z,10.20
2019-03-21T08:22:56.325Z,10.20
2019-03-21T08:24:57.469Z,10.30
2019-03-21T08:26:58.620Z,10.40
2019-03-21T08:29:00.049Z,10.40
2019-03-21T08:31:08.358Z,10.50
2019-03-21T08:33:09.496Z,10.50
2019-03-21T08:35:10.640Z,10.60
2019-03-21T08:37:11.777Z,10.60
2019-03-21T08:39:13.225Z,10.60
2019-03-21T08:41:14.875Z,10.60
2019-03-21T08:43:15.905Z,10.70
2019-03-21T08:45:16.924Z,10.80
2019-03-21T08:47:17.941Z,10.90
2019-03-21T08:49:18.960Z,11.00
2019-03-21T08:51:20.377Z,11.00
2019-03-21T08:53:21.506Z,11.10
2019-03-21T08:55:22.653Z,11.30
2019-03-21T08:57:23.796Z,11.40
2019-03-21T08:59:25.339Z,11.50
2019-03-21T09:01:26.356Z,11.60
2019-03-21T09:03:27.389Z,11.90
2019-03-21T09:05:28.436Z,12.00
2019-03-21T09:07:29.580Z,12.20
2019-03-21T09:09:31.033Z,12.30
2019-03-21T09:11:32.049Z,12.50
2019-03-21T09:13:33.185Z,12.70
2019-03-21T09:15:34.335Z,12.70
2019-03-21T09:17:35.693Z,12.80
2019-03-21T09:19:36.833Z,12.80
2019-03-21T09:21:37.985Z,12.70
2019-03-21T09:23:39.141Z,12.60
2019-03-21T09:25:40.283Z,12.60
2019-03-21T09:27:41.417Z,12.70
2019-03-21T09:29:53.166Z,12.70
2019-03-21T09:31:45.921Z,12.80
2019-03-21T09:33:47.062Z,12.90
2019-03-21T09:35:48.550Z,13.00
2019-03-21T09:37:49.793Z,13.10
2019-03-21T09:39:50.986Z,13.20
2019-03-21T09:41:52.225Z,13.20
2019-03-21T09:43:53.370Z,13.20
2019-03-21T09:45:54.514Z,13.40
2019-03-21T09:47:55.657Z,13.30
2019-03-21T09:49:59.164Z,13.50
2019-03-21T09:51:59.857Z,13.60
2019-03-21T09:54:09.214Z,13.70
2019-03-21T09:56:03.817Z,13.80
2019-03-21T09:58:04.850Z,13.90
2019-03-21T10:00:07.641Z,13.90
2019-03-21T10:02:08.797Z,13.90
2019-03-21T10:04:09.832Z,13.80
2019-03-21T10:06:10.956Z,13.90
2019-03-21T10:08:11.965Z,14.00
2019-03-21T10:10:14.885Z,14.00
2019-03-21T10:12:15.911Z,14.10
2019-03-21T10:14:16.946Z,14.30
2019-03-21T10:16:18.225Z,14.40
2019-03-21T10:18:19.241Z,14.40
2019-03-21T10:20:20.257Z,14.50
2019-03-21T10:22:21.291Z,14.40
2019-03-21T10:24:22.645Z,14.30
2019-03-21T10:26:23.699Z,14.40
2019-03-21T10:28:24.709Z,14.60
2019-03-21T10:30:27.645Z,14.70
2019-03-21T10:32:28.700Z,14.80
2019-03-21T10:34:29.734Z,15.00
2019-03-21T10:36:31.013Z,15.10
2019-03-21T10:38:32.050Z,15.10
2019-03-21T10:40:33.072Z,15.10
2019-03-21T10:42:34.185Z,14.90
2019-03-21T10:44:35.221Z,14.90
2019-03-21T10:46:36.311Z,14.60
2019-03-21T10:48:37.354Z,14.80
2019-03-21T10:50:39.074Z,15.00
2019-03-21T10:52:40.188Z,14.80
2019-03-21T10:54:41.250Z,15.20
2019-03-21T10:56:42.385Z,15.10
2019-03-21T10:58:43.470Z,15.00
2019-03-21T11:00:44.509Z,14.90
2019-03-21T11:02:45.557Z,15.30
2019-03-21T11:04:46.848Z,15.40
2019-03-21T11:06:49.785Z,15.60
2019-03-21T11:08:51.045Z,15.70
2019-03-21T11:10:52.186Z,15.90
2019-03-21T11:12:53.569Z,15.90
2019-03-21T11:14:54.774Z,15.50
2019-03-21T11:16:56.675Z,15.80
2019-03-21T11:18:58.128Z,16.00
2019-03-21T11:20:59.818Z,16.20
2019-03-21T11:23:01.253Z,15.80
2019-03-21T11:25:05.393Z,15.60
2019-03-21T11:27:06.649Z,15.40
2019-03-21T11:29:07.789Z,15.40
2019-03-21T11:31:08.877Z,15.60
2019-03-21T11:33:09.918Z,15.40
2019-03-21T11:35:10.935Z,15.40
2019-03-21T11:37:12.036Z,15.40
2019-03-21T11:39:13.053Z,15.20
2019-03-21T11:41:14.186Z,15.50
2019-03-21T11:43:15.215Z,15.80
2019-03-21T11:45:16.243Z,15.90
2019-03-21T11:47:17.325Z,15.70
2019-03-21T11:49:18.413Z,15.90
2019-03-21T11:51:19.478Z,15.80
2019-03-21T11:53:20.769Z,16.00
2019-03-21T11:55:21.799Z,16.70
2019-03-21T11:57:22.832Z,16.70
2019-03-21T11:59:23.966Z,16.50
2019-03-21T12:01:25.153Z,16.50
2019-03-21T12:03:27.100Z,16.90
2019-03-21T12:05:28.277Z,17.30
2019-03-21T12:07:29.430Z,17.70
2019-03-21T12:09:31.414Z,17.60
2019-03-21T12:11:32.554Z,17.80
2019-03-21T12:13:33.741Z,17.90
2019-03-21T12:15:35.219Z,18.60
2019-03-21T12:17:36.368Z,19.00
2019-03-21T12:19:37.509Z,19.50
2019-03-21T12:21:38.650Z,18.00
2019-03-21T12:23:39.803Z,17.60
2019-03-21T12:25:40.946Z,17.60
2019-03-21T12:27:42.095Z,17.40
2019-03-21T12:29:43.245Z,17.90
2019-03-21T12:31:46.403Z,18.70
2019-03-21T12:33:47.841Z,18.60
2019-03-21T12:35:48.989Z,19.50
2019-03-21T12:37:50.139Z,20.30
2019-03-21T12:39:51.287Z,20.50
2019-03-21T12:41:52.426Z,20.90
2019-03-21T12:43:53.581Z,20.80
2019-03-21T12:45:54.713Z,21.10
2019-03-21T12:47:55.965Z,21.80
2019-03-21T12:49:57.102Z,22.30
2019-03-21T12:51:58.245Z,22.50
2019-03-21T12:53:59.432Z,22.30
2019-03-21T12:56:00.470Z,22.40
2019-03-21T12:58:01.619Z,23.00
2019-03-21T13:00:11.801Z,23.10
2019-03-21T13:02:12.997Z,22.90
2019-03-21T13:04:14.160Z,22.60
2019-03-21T13:06:15.758Z,21.80
2019-03-21T13:08:16.835Z,21.80
2019-03-21T13:10:17.980Z,21.90
2019-03-21T13:12:19.113Z,21.70
2019-03-21T13:14:20.145Z,22.00
2019-03-21T13:16:21.166Z,22.40
2019-03-21T13:18:22.197Z,22.80
2019-03-21T13:20:23.223Z,23.30
2019-03-21T13:22:24.251Z,22.60
2019-03-21T13:24:25.273Z,22.20
2019-03-21T13:26:26.310Z,22.60
2019-03-21T13:28:27.330Z,22.50
2019-03-21T13:30:28.362Z,22.70
2019-03-21T13:32:29.386Z,23.10
2019-03-21T13:34:30.413Z,23.60
2019-03-21T13:36:31.438Z,24.10
2019-03-21T13:38:32.479Z,24.60
2019-03-21T13:40:33.950Z,25.10
2019-03-21T13:42:34.982Z,25.20
2019-03-21T13:44:36.335Z,25.40
2019-03-21T13:46:37.356Z,25.80
2019-03-21T13:48:38.726Z,25.20
2019-03-21T13:50:39.754Z,25.30
2019-03-21T13:52:40.843Z,23.90
2019-03-21T13:54:41.906Z,23.20
2019-03-21T13:56:42.955Z,24.00
2019-03-21T13:58:46.554Z,24.50
2019-03-21T14:00:47.199Z,24.80
2019-03-21T14:02:48.412Z,25.10
2019-03-21T14:04:49.703Z,24.40
2019-03-21T14:06:50.717Z,23.10
2019-03-21T14:08:51.754Z,22.60
2019-03-21T14:10:52.786Z,21.90
2019-03-21T14:12:54.238Z,21.30
2019-03-21T14:14:55.288Z,21.90
2019-03-21T14:16:56.432Z,23.10
2019-03-21T14:18:57.587Z,22.50
2019-03-21T14:20:58.599Z,22.50
2019-03-21T14:22:59.734Z,21.20
2019-03-21T14:25:00.957Z,21.40
2019-03-21T14:27:01.977Z,21.60
2019-03-21T14:29:12.134Z,22.00
2019-03-21T14:31:05.933Z,22.60
2019-03-21T14:33:08.318Z,23.30
2019-03-21T14:35:10.044Z,23.30
2019-03-21T14:37:11.389Z,23.50
2019-03-21T14:39:12.501Z,23.10
2019-03-21T14:41:13.649Z,22.30
2019-03-21T14:43:14.673Z,21.60
2019-03-21T14:45:15.808Z,21.20
2019-03-21T14:47:16.845Z,21.50
2019-03-21T14:49:17.877Z,22.40
2019-03-21T14:51:19.017Z,22.30
2019-03-21T14:53:28.847Z,22.90
2019-03-21T14:55:23.103Z,22.40
2019-03-21T14:57:24.249Z,23.60
2019-03-21T14:59:25.426Z,24.20
2019-03-21T15:01:26.655Z,24.50
2019-03-21T15:03:28.150Z,22.50
2019-03-21T15:05:29.179Z,23.10
2019-03-21T15:07:30.417Z,23.00
2019-03-21T15:09:31.569Z,23.80
2019-03-21T15:11:32.627Z,23.10
2019-03-21T15:13:33.768Z,21.30
2019-03-21T15:15:35.334Z,21.70
2019-03-21T15:17:36.629Z,22.10
2019-03-21T15:19:39.314Z,23.00
2019-03-21T15:21:41.062Z,23.80
2019-03-21T15:23:42.109Z,23.30
2019-03-21T15:25:43.900Z,23.00
2019-03-21T15:27:45.502Z,23.30
2019-03-21T15:29:46.675Z,23.60
2019-03-21T15:31:47.885Z,24.00
2019-03-21T15:33:49.334Z,24.10
2019-03-21T15:35:50.362Z,24.00
2019-03-21T15:37:51.905Z,24.20
2019-03-21T15:39:52.955Z,24.10
2019-03-21T15:41:54.471Z,23.30
2019-03-21T15:43:55.702Z,22.90
2019-03-21T15:45:56.853Z,22.80
2019-03-21T15:47:57.892Z,22.40
2019-03-21T15:49:59.326Z,22.00
2019-03-21T15:52:00.425Z,22.10
2019-03-21T15:54:01.758Z,22.90
2019-03-21T15:56:02.801Z,23.50
2019-03-21T15:58:03.822Z,24.00
2019-03-21T16:00:09.266Z,24.40
2019-03-21T16:02:10.414Z,24.60
2019-03-21T16:04:11.437Z,24.90
2019-03-21T16:06:12.469Z,25.00
2019-03-21T16:08:13.490Z,24.60
2019-03-21T16:10:14.868Z,24.50
2019-03-21T16:12:15.897Z,24.60
2019-03-21T16:14:16.941Z,24.60
2019-03-21T16:16:18.157Z,24.40
2019-03-21T16:18:19.181Z,24.10
2019-03-21T16:20:20.229Z,23.70
2019-03-21T16:22:21.263Z,22.10
2019-03-21T16:24:22.287Z,20.70
2019-03-21T16:26:23.466Z,20.80
2019-03-21T16:28:24.554Z,20.70
2019-03-21T16:30:25.573Z,20.60
2019-03-21T16:32:26.908Z,19.80
2019-03-21T16:34:28.082Z,20.10
2019-03-21T16:36:29.262Z,19.80
2019-03-21T16:38:30.932Z,19.70
2019-03-21T16:40:32.303Z,20.00
2019-03-21T16:42:33.535Z,19.80
2019-03-21T16:44:34.613Z,20.00
2019-03-21T16:46:35.757Z,20.20
2019-03-21T16:48:37.094Z,20.40
2019-03-21T16:50:38.493Z,20.30
2019-03-21T16:52:39.658Z,20.30
2019-03-21T16:54:40.713Z,20.20
2019-03-21T16:56:41.779Z,20.20
2019-03-21T16:58:42.805Z,20.20
2019-03-21T17:00:44.150Z,20.10
2019-03-21T17:02:45.777Z,20.00
2019-03-21T17:04:46.840Z,19.90
2019-03-21T17:06:48.293Z,19.70
2019-03-21T17:08:49.389Z,19.60
2019-03-21T17:10:50.460Z,19.50
2019-03-21T17:12:51.578Z,19.30
2019-03-21T17:14:52.925Z,19.20
2019-03-21T17:16:54.060Z,19.00
2019-03-21T17:18:55.215Z,19.10
2019-03-21T17:20:56.372Z,18.80
2019-03-21T17:22:57.625Z,18.70
2019-03-21T17:24:58.637Z,18.70
2019-03-21T17:26:59.761Z,18.60
2019-03-21T17:29:00.905Z,18.60
2019-03-21T17:31:01.950Z,18.60
2019-03-21T17:33:03.086Z,18.40
2019-03-21T17:35:04.689Z,18.30
2019-03-21T17:37:06.030Z,18.20
2019-03-21T17:39:07.952Z,18.20
2019-03-21T17:41:09.403Z,18.10
2019-03-21T17:43:10.625Z,18.10
2019-03-21T17:45:17.067Z,18.00
2019-03-21T17:47:18.218Z,17.90
2019-03-21T17:49:19.464Z,17.80
2019-03-21T17:51:20.721Z,17.60
2019-03-21T17:53:21.866Z,17.50
2019-03-21T17:55:23.118Z,17.50
2019-03-21T17:57:33.889Z,17.40
2019-03-21T17:59:27.442Z,17.20
2019-03-21T18:01:28.633Z,17.10
2019-03-21T18:03:29.942Z,17.00
2019-03-21T18:05:31.164Z,16.90
2019-03-21T18:07:32.422Z,16.90
2019-03-21T18:09:33.674Z,16.80
2019-03-21T18:11:34.835Z,16.70
2019-03-21T18:13:36.110Z,16.70
2019-03-21T18:15:37.385Z,16.60
2019-03-21T18:17:38.655Z,16.60
2019-03-21T18:19:39.878Z,16.50
2019-03-21T18:21:41.076Z,16.50
2019-03-21T18:23:42.210Z,16.50
2019-03-21T18:25:43.711Z,16.40
2019-03-21T18:27:44.861Z,16.30
2019-03-21T18:29:46.493Z,16.20
2019-03-21T18:31:48.091Z,16.20
2019-03-21T18:33:49.225Z,16.10
2019-03-21T18:35:50.361Z,16.10
2019-03-21T18:37:51.559Z,16.00
2019-03-21T18:39:52.698Z,15.90
2019-03-21T18:41:53.781Z,15.70
2019-03-21T18:43:54.809Z,15.70
2019-03-21T18:45:55.947Z,15.60
2019-03-21T18:47:57.713Z,15.50
2019-03-21T18:49:59.212Z,15.40
2019-03-21T18:52:00.708Z,15.40
2019-03-21T18:54:02.046Z,15.30
2019-03-21T18:56:03.874Z,15.20
2019-03-21T18:58:05.293Z,15.10
2019-03-21T19:00:16.751Z,15.10
2019-03-21T19:02:18.200Z,15.00
2019-03-21T19:04:19.475Z,14.90
2019-03-21T19:06:20.989Z,14.80
2019-03-21T19:08:22.202Z,14.70
2019-03-21T19:10:23.406Z,14.70
2019-03-21T19:12:24.565Z,14.70
2019-03-21T19:14:25.709Z,14.70
2019-03-21T19:16:26.848Z,14.60
2019-03-21T19:18:28.010Z,14.60
2019-03-21T19:20:29.150Z,14.40
2019-03-21T19:22:30.302Z,14.40
2019-03-21T19:24:31.495Z,14.20
2019-03-21T19:26:32.729Z,14.20
2019-03-21T19:28:33.888Z,14.20
2019-03-21T19:30:35.067Z,14.10
2019-03-21T19:32:36.213Z,14.10
2019-03-21T19:34:37.345Z,14.00
2019-03-21T19:36:39.193Z,13.90
2019-03-21T19:38:40.356Z,13.90
2019-03-21T19:40:41.501Z,13.70
2019-03-21T19:42:42.755Z,13.70
2019-03-21T19:44:44.003Z,13.60
2019-03-21T19:46:45.241Z,13.50
2019-03-21T19:48:50.414Z,13.40
2019-03-21T19:50:49.487Z,13.30
2019-03-21T19:52:50.635Z,13.30
2019-03-21T19:54:51.772Z,13.20
2019-03-21T19:56:52.925Z,13.20
2019-03-21T19:58:54.075Z,13.10
2019-03-21T20:00:55.269Z,13.00
2019-03-21T20:02:56.467Z,13.00
2019-03-21T20:04:57.693Z,12.90
2019-03-21T20:06:58.919Z,12.80
2019-03-21T20:09:00.170Z,12.80
2019-03-21T20:11:01.332Z,12.80
2019-03-21T20:13:02.473Z,12.80
2019-03-21T20:15:06.613Z,12.70
2019-03-21T20:17:07.753Z,12.50
2019-03-21T20:19:08.941Z,12.50
2019-03-21T20:21:10.086Z,12.50
2019-03-21T20:23:11.259Z,12.50
2019-03-21T20:25:12.594Z,12.40
2019-03-21T20:27:13.789Z,12.40
2019-03-21T20:29:15.027Z,12.40
2019-03-21T20:31:17.338Z,12.40
2019-03-21T20:33:18.746Z,12.30
2019-03-21T20:35:19.891Z,12.30
2019-03-21T20:37:28.501Z,12.20
2019-03-21T20:39:29.741Z,12.20
2019-03-21T20:41:30.887Z,12.10
2019-03-21T20:43:32.038Z,12.10
2019-03-21T20:45:33.173Z,12.00
2019-03-21T20:47:35.180Z,12.00
2019-03-21T20:49:36.466Z,12.00
2019-03-21T20:51:37.602Z,12.00
2019-03-21T20:53:38.762Z,11.90
2019-03-21T20:55:40.048Z,11.90
2019-03-21T20:57:41.200Z,11.80
2019-03-21T20:59:42.705Z,11.80
2019-03-21T21:01:43.901Z,11.80
2019-03-21T21:03:45.190Z,11.70
2019-03-21T21:05:46.505Z,11.70
2019-03-21T21:07:47.729Z,11.60
2019-03-21T21:09:48.880Z,11.50
2019-03-21T21:11:50.023Z,11.40
2019-03-21T21:13:51.169Z,11.40
2019-03-21T21:15:52.383Z,11.30
2019-03-21T21:17:53.522Z,11.20
2019-03-21T21:19:54.670Z,11.20
2019-03-21T21:21:55.810Z,11.20
2019-03-21T21:23:56.966Z,11.20
2019-03-21T21:26:05.502Z,11.10
2019-03-21T21:28:01.170Z,11.10
2019-03-21T21:30:05.021Z,10.90
2019-03-21T21:32:06.245Z,11.00
2019-03-21T21:34:07.514Z,11.00
2019-03-21T21:36:08.778Z,10.90
2019-03-21T21:38:09.922Z,10.90
2019-03-21T21:40:11.978Z,10.80
2019-03-21T21:42:13.137Z,10.70
2019-03-21T21:44:14.382Z,10.80
2019-03-21T21:46:15.538Z,10.80
2019-03-21T21:48:16.774Z,10.80
2019-03-21T21:50:17.929Z,10.80
2019-03-21T21:52:19.066Z,10.70
2019-03-21T21:54:20.394Z,10.70
2019-03-21T21:56:21.543Z,10.70
2019-03-21T21:58:22.679Z,10.50
2019-03-21T22:00:23.827Z,10.50
2019-03-21T22:02:24.961Z,10.50
2019-03-21T22:04:26.111Z,10.40
2019-03-21T22:06:28.142Z,10.40
2019-03-21T22:08:29.270Z,10.30
2019-03-21T22:10:30.427Z,10.30
2019-03-21T22:12:31.565Z,10.20
2019-03-21T22:14:32.718Z,10.10
2019-03-21T22:16:33.853Z,10.10
2019-03-21T22:18:35.004Z,10.20
2019-03-21T22:20:36.242Z,10.10
2019-03-21T22:22:37.477Z,10.10
2019-03-21T22:24:38.720Z,10.10
2019-03-21T22:26:39.858Z,10.10
2019-03-21T22:28:41.002Z,10.00
2019-03-21T22:30:42.153Z,9.90
2019-03-21T22:32:43.373Z,10.00
2019-03-21T22:34:44.769Z,9.90
2019-03-21T22:36:49.503Z,9.80
2019-03-21T22:38:48.948Z,9.90
2019-03-21T22:40:50.094Z,9.90
2019-03-21T22:42:51.233Z,9.70
2019-03-21T22:44:52.387Z,9.70
2019-03-21T22:46:53.772Z,9.70
2019-03-21T22:48:54.914Z,9.70
2019-03-21T22:50:56.079Z,9.70
2019-03-21T22:52:57.327Z,9.60
2019-03-21T22:54:58.534Z,9.60
2019-03-21T22:56:59.681Z,9.70
2019-03-21T22:59:00.850Z,9.50
2019-03-21T23:01:02.106Z,9.50
2019-03-21T23:03:03.257Z,9.40
2019-03-21T23:05:05.401Z,9.40
2019-03-21T23:07:06.539Z,9.50
2019-03-21T23:09:07.829Z,9.60
2019-03-21T23:11:08.976Z,9.60
2019-03-21T23:13:10.191Z,9.50
2019-03-21T23:15:11.935Z,9.50
2019-03-21T23:17:13.073Z,9.40
2019-03-21T23:19:14.454Z,9.40
2019-03-21T23:21:15.602Z,9.40
2019-03-21T23:23:16.773Z,9.30
2019-03-21T23:25:17.924Z,9.20
2019-03-21T23:27:19.341Z,9.10
2019-03-21T23:29:20.653Z,9.10
2019-03-21T23:31:21.805Z,9.00
2019-03-21T23:33:22.950Z,8.90
2019-03-21T23:35:24.093Z,8.80
2019-03-21T23:37:25.234Z,8.90
2019-03-21T23:39:26.373Z,8.90
2019-03-21T23:41:27.791Z,8.90
2019-03-21T23:43:28.942Z,8.80
2019-03-21T23:45:30.356Z,8.80
2019-03-21T23:47:31.569Z,8.80
2019-03-21T23:49:32.966Z,8.90
2019-03-21T23:51:34.367Z,8.80
2019-03-21T23:53:35.761Z,8.80
2019-03-21T23:55:36.905Z,8.60
2019-03-21T23:57:38.054Z,8.50
2019-03-21T23:59:39.234Z,8.40
